Kaneohe Bay MCAS (Marion E. Carl Field) Airport Kaneohe US
ICAO: PHNG
IATA:
Category: Medium
Scheduled Services:

Elevation: 24 ft
TransAlt. 18000 ft.

Airport Communications:
APP/DEP:125
ATIS:28.45
CLNC DEL:29.47
CTAF:120.7
GND:38.28
PMSV METRO:34.46
PTD:30.72
TWR:120.7

PHNG Zoom In..

Runways:

(A) RW 04 length 7771 ft width 200 ft
---- / hdg 41

(B) RW 22 length 7771 ft width 200 ft
---- / hdg 221

Location; PHNG
Day. 17 / Time. 07.20 Zulu
* Altimeter: 30.03
* Temperature: 27° c. 80.6°f.
* Wind from: 060° Speed 10 kn with Gusts up to 20 kn.
Dewpoint: 24° c.
Visibility: 10 Statute Miles.
Clouds: Scattered 2000 ft.
Clouds: Broken 3900 ft.
Clouds: Overcast 4800 ft.

PHNG 170720Z 06010G20KT 10SM SCT020 BKN039 OVC048 27/24 A3003 RMK AO2 T02670239 $


Wind From 060°
Speed 10 kn.

 
 
jpsmedia.com for Web Design worldairports.se 2018   terms of use